createdAt,value
2018-08-04T00:03:29.580Z,30.11
2018-08-04T00:06:54.125Z,29.90
2018-08-04T00:10:20.832Z,29.61
2018-08-04T00:13:45.372Z,29.65
2018-08-04T00:17:09.780Z,29.57
2018-08-04T00:20:34.234Z,29.43
2018-08-04T00:23:58.873Z,29.60
2018-08-04T00:27:23.374Z,29.52
2018-08-04T00:30:47.829Z,29.42
2018-08-04T00:34:12.305Z,29.26
2018-08-04T00:37:36.551Z,29.21
2018-08-04T00:41:00.974Z,29.19
2018-08-04T00:44:25.439Z,28.92
2018-08-04T00:47:49.857Z,28.79
2018-08-04T00:51:14.263Z,28.57
2018-08-04T00:54:38.697Z,28.45
2018-08-04T00:58:03.143Z,28.25
2018-08-04T01:01:27.705Z,27.83
2018-08-04T01:04:52.158Z,27.98
2018-08-04T01:08:16.639Z,27.68
2018-08-04T01:11:41.096Z,27.71
2018-08-04T01:15:05.627Z,27.44
2018-08-04T01:18:30.088Z,27.52
2018-08-04T01:21:54.551Z,27.38
2018-08-04T01:25:18.984Z,27.40
2018-08-04T01:28:43.552Z,27.25
2018-08-04T01:32:07.969Z,27.04
2018-08-04T01:35:32.385Z,27.03
2018-08-04T01:38:56.857Z,26.85
2018-08-04T01:42:21.293Z,26.59
2018-08-04T01:45:45.747Z,26.67
2018-08-04T01:49:10.178Z,26.64
2018-08-04T01:52:34.559Z,26.64
2018-08-04T01:55:58.980Z,26.42
2018-08-04T01:59:23.398Z,26.38
2018-08-04T02:02:47.793Z,26.36
2018-08-04T02:06:12.443Z,26.29
2018-08-04T02:09:36.832Z,26.31
2018-08-04T02:13:01.326Z,26.24
2018-08-04T02:16:25.757Z,26.14
2018-08-04T02:19:50.200Z,26.02
2018-08-04T02:23:14.636Z,25.74
2018-08-04T02:26:39.040Z,25.72
2018-08-04T02:30:03.709Z,25.69
2018-08-04T02:33:28.164Z,25.56
2018-08-04T02:36:52.612Z,25.52
2018-08-04T02:40:17.165Z,25.53
2018-08-04T02:43:41.743Z,25.49
2018-08-04T02:47:06.164Z,25.45
2018-08-04T02:50:31.084Z,25.57
2018-08-04T02:53:55.801Z,25.51
2018-08-04T02:57:20.492Z,25.51
2018-08-04T03:00:45.052Z,25.46
2018-08-04T03:04:09.959Z,25.34
2018-08-04T03:07:34.492Z,25.35
2018-08-04T03:10:59.227Z,25.30
2018-08-04T03:14:23.707Z,25.23
2018-08-04T03:17:48.402Z,25.23
2018-08-04T03:21:12.843Z,25.19
2018-08-04T03:24:37.515Z,25.31
2018-08-04T03:28:02.297Z,25.27
2018-08-04T03:31:26.857Z,25.36
2018-08-04T03:34:51.394Z,25.26
2018-08-04T03:38:15.624Z,25.15
2018-08-04T03:41:41.003Z,25.19
2018-08-04T03:45:05.607Z,25.24
2018-08-04T03:48:30.211Z,25.24
2018-08-04T03:51:54.701Z,25.32
2018-08-04T03:55:19.369Z,25.43
2018-08-04T03:58:44.115Z,25.52
2018-08-04T04:02:08.536Z,25.51
2018-08-04T04:05:33.488Z,25.53
2018-08-04T04:08:57.928Z,25.45
2018-08-04T04:12:22.362Z,25.51
2018-08-04T04:15:46.804Z,25.42
2018-08-04T04:19:11.195Z,25.34
2018-08-04T04:22:35.626Z,25.34
2018-08-04T04:26:00.026Z,25.37
2018-08-04T04:29:25.058Z,25.36
2018-08-04T04:32:49.491Z,25.47
2018-08-04T04:36:13.910Z,25.50
2018-08-04T04:39:38.320Z,25.60
2018-08-04T04:43:02.950Z,25.52
2018-08-04T04:46:27.387Z,25.39
2018-08-04T04:49:51.854Z,25.54
2018-08-04T04:53:16.286Z,25.52
2018-08-04T04:56:40.708Z,25.66
2018-08-04T05:00:05.587Z,25.76
2018-08-04T05:03:29.992Z,25.77
2018-08-04T05:06:54.576Z,25.93
2018-08-04T05:10:18.980Z,25.88
2018-08-04T05:13:43.371Z,26.11
2018-08-04T05:17:07.915Z,26.23
2018-08-04T05:20:32.835Z,26.19
2018-08-04T05:23:58.265Z,26.22
2018-08-04T05:27:22.709Z,26.26
2018-08-04T05:30:46.911Z,26.34
2018-08-04T05:34:11.392Z,26.40
2018-08-04T05:37:35.851Z,26.58
2018-08-04T05:41:00.276Z,26.55
2018-08-04T05:44:24.741Z,26.58
2018-08-04T05:47:49.166Z,26.62
2018-08-04T05:51:13.579Z,26.73
2018-08-04T05:54:37.723Z,26.79
2018-08-04T05:58:02.261Z,26.98
2018-08-04T06:01:26.654Z,27.13
2018-08-04T06:04:51.255Z,27.05
2018-08-04T06:08:15.713Z,27.04
2018-08-04T06:11:40.935Z,27.20
2018-08-04T06:15:05.776Z,27.30
2018-08-04T06:18:30.202Z,27.16
2018-08-04T06:21:54.703Z,26.97
2018-08-04T06:25:19.097Z,27.09
2018-08-04T06:28:43.903Z,27.06
2018-08-04T06:32:08.759Z,27.20
2018-08-04T06:35:33.192Z,27.23
2018-08-04T06:38:57.614Z,27.21
2018-08-04T06:42:22.697Z,27.43
2018-08-04T06:45:47.227Z,27.45
2018-08-04T06:49:11.711Z,27.33
2018-08-04T06:52:36.320Z,27.33
2018-08-04T06:56:00.762Z,27.66
2018-08-04T06:59:25.237Z,27.49
2018-08-04T07:02:49.717Z,27.60
2018-08-04T07:06:14.219Z,27.69
2018-08-04T07:09:38.632Z,27.65
2018-08-04T07:13:03.114Z,27.87
2018-08-04T07:16:27.551Z,27.94
2018-08-04T07:19:52.058Z,28.04
2018-08-04T07:23:16.582Z,27.94
2018-08-04T07:26:41.000Z,28.04
2018-08-04T07:30:10.734Z,28.07
2018-08-04T07:33:35.191Z,28.00
2018-08-04T07:36:59.643Z,27.91
2018-08-04T07:40:24.237Z,27.83
2018-08-04T07:43:48.671Z,27.67
2018-08-04T07:47:13.186Z,27.55
2018-08-04T07:50:37.668Z,27.62
2018-08-04T07:54:02.140Z,27.72
2018-08-04T07:57:26.604Z,27.85
2018-08-04T08:00:51.024Z,28.09
2018-08-04T08:04:15.447Z,28.33
2018-08-04T08:07:39.926Z,28.51
2018-08-04T08:11:04.396Z,28.52
2018-08-04T08:14:28.844Z,28.61
2018-08-04T08:17:53.287Z,28.85
2018-08-04T08:21:17.733Z,28.98
2018-08-04T08:24:42.226Z,28.79
2018-08-04T08:28:06.928Z,29.13
2018-08-04T08:31:31.336Z,29.36
2018-08-04T08:34:55.837Z,29.54
2018-08-04T08:38:20.285Z,29.72
2018-08-04T08:41:44.724Z,29.87
2018-08-04T08:45:10.770Z,30.02
2018-08-04T08:48:35.190Z,30.13
2018-08-04T08:51:59.605Z,30.22
2018-08-04T08:55:24.319Z,30.52
2018-08-04T08:58:48.821Z,30.63
2018-08-04T09:02:13.402Z,30.66
2018-08-04T09:05:37.805Z,30.71
2018-08-04T09:09:02.218Z,30.85
2018-08-04T09:12:26.652Z,31.01
2018-08-04T09:15:51.077Z,31.24
2018-08-04T09:19:15.388Z,31.18
2018-08-04T09:22:39.950Z,31.25
2018-08-04T09:26:04.418Z,31.31
2018-08-04T09:29:28.876Z,31.49
2018-08-04T09:32:53.352Z,31.71
2018-08-04T09:36:17.774Z,32.13
2018-08-04T09:39:42.222Z,32.51
2018-08-04T09:43:06.847Z,32.67
2018-08-04T09:46:31.300Z,33.03
2018-08-04T09:49:55.729Z,33.47
2018-08-04T09:53:20.213Z,33.63
2018-08-04T09:56:44.662Z,33.76
2018-08-04T10:00:18.095Z,34.10
2018-08-04T10:03:42.633Z,34.13
2018-08-04T10:07:07.808Z,34.19
2018-08-04T10:10:32.245Z,34.09
2018-08-04T10:13:56.716Z,34.55
2018-08-04T10:17:21.173Z,34.90
2018-08-04T10:20:45.588Z,35.21
2018-08-04T10:24:10.029Z,35.46
2018-08-04T10:27:34.440Z,35.53
2018-08-04T10:30:58.883Z,35.26
2018-08-04T10:34:23.403Z,35.62
2018-08-04T10:37:47.842Z,36.15
2018-08-04T10:41:12.289Z,35.85
2018-08-04T10:44:36.729Z,36.17
2018-08-04T10:48:01.267Z,36.36
2018-08-04T10:51:25.708Z,36.68
2018-08-04T10:54:50.261Z,37.27
2018-08-04T10:58:14.737Z,36.94
2018-08-04T11:01:39.155Z,37.31
2018-08-04T11:05:03.713Z,37.18
2018-08-04T11:08:28.121Z,37.23
2018-08-04T11:11:52.587Z,37.25
2018-08-04T11:15:17.055Z,38.03
2018-08-04T11:18:41.520Z,37.96
2018-08-04T11:22:06.130Z,38.28
2018-08-04T11:25:30.585Z,37.99
2018-08-04T11:28:55.043Z,38.63
2018-08-04T11:32:19.479Z,38.86
2018-08-04T11:35:44.034Z,38.42
2018-08-04T11:39:10.788Z,38.26
2018-08-04T11:42:35.223Z,38.72
2018-08-04T11:45:59.670Z,38.84
2018-08-04T11:49:24.154Z,39.00
2018-08-04T11:52:48.612Z,39.38
2018-08-04T11:56:13.066Z,39.08
2018-08-04T11:59:37.792Z,39.01
2018-08-04T12:03:02.225Z,39.33
2018-08-04T12:06:26.757Z,39.40
2018-08-04T12:09:51.193Z,38.63
2018-08-04T12:13:15.786Z,39.38
2018-08-04T12:16:40.288Z,39.61
2018-08-04T12:20:05.137Z,39.86
2018-08-04T12:23:29.536Z,39.36
2018-08-04T12:26:53.984Z,40.15
2018-08-04T12:30:18.474Z,39.84
2018-08-04T12:33:42.918Z,39.55
2018-08-04T12:37:07.405Z,39.41
2018-08-04T12:40:31.844Z,39.88
2018-08-04T12:43:56.276Z,40.85
2018-08-04T12:47:20.705Z,41.82
2018-08-04T12:50:45.160Z,42.55
2018-08-04T12:54:10.056Z,42.50
2018-08-04T12:57:34.856Z,42.32
2018-08-04T13:00:59.307Z,44.07
2018-08-04T13:04:23.730Z,44.34
2018-08-04T13:07:48.205Z,45.80
2018-08-04T13:11:12.649Z,47.01
2018-08-04T13:14:37.145Z,47.40
2018-08-04T13:18:01.565Z,49.11
2018-08-04T13:21:25.966Z,49.91
2018-08-04T13:24:50.424Z,49.65
2018-08-04T13:28:14.865Z,48.97
2018-08-04T13:31:39.334Z,49.38
2018-08-04T13:35:03.754Z,49.11
2018-08-04T13:38:28.217Z,49.53
2018-08-04T13:41:53.370Z,51.51
2018-08-04T13:45:17.829Z,49.05
2018-08-04T13:48:42.239Z,50.19
2018-08-04T13:52:06.652Z,48.85
2018-08-04T13:55:31.084Z,49.47
2018-08-04T13:58:55.530Z,50.25
2018-08-04T14:02:19.991Z,51.29
2018-08-04T14:05:44.430Z,51.49
2018-08-04T14:09:10.700Z,49.14
2018-08-04T14:12:35.276Z,50.57
2018-08-04T14:15:59.711Z,50.11
2018-08-04T14:19:24.122Z,51.18
2018-08-04T14:22:48.554Z,51.50
2018-08-04T14:26:13.015Z,50.83
2018-08-04T14:29:37.452Z,51.33
2018-08-04T14:33:01.895Z,51.56
2018-08-04T14:36:26.355Z,49.11
2018-08-04T14:39:50.754Z,48.89
2018-08-04T14:43:15.183Z,49.14
2018-08-04T14:46:39.624Z,47.89
2018-08-04T14:50:04.052Z,49.30
2018-08-04T14:53:28.506Z,48.07
2018-08-04T14:56:52.893Z,45.59
2018-08-04T15:00:17.544Z,45.40
2018-08-04T15:03:41.965Z,47.08
2018-08-04T15:07:06.600Z,48.82
2018-08-04T15:10:31.036Z,48.86
2018-08-04T15:13:55.468Z,50.51
2018-08-04T15:17:19.938Z,50.53
2018-08-04T15:20:44.459Z,49.75
2018-08-04T15:24:08.938Z,49.55
2018-08-04T15:27:34.288Z,50.39
2018-08-04T15:30:59.256Z,50.75
2018-08-04T15:34:23.690Z,51.62
2018-08-04T15:37:48.138Z,51.61
2018-08-04T15:41:12.581Z,49.92
2018-08-04T15:44:37.470Z,49.05
2018-08-04T15:48:02.245Z,49.24
2018-08-04T15:51:26.664Z,49.14
2018-08-04T15:54:51.095Z,47.11
2018-08-04T15:58:15.534Z,45.50
2018-08-04T16:01:39.941Z,45.50
2018-08-04T16:05:04.392Z,44.82
2018-08-04T16:08:29.359Z,44.72
2018-08-04T16:11:53.851Z,46.16
2018-08-04T16:15:18.269Z,44.98
2018-08-04T16:18:42.710Z,45.07
2018-08-04T16:22:07.650Z,44.46
2018-08-04T16:25:32.088Z,42.25
2018-08-04T16:28:56.572Z,41.54
2018-08-04T16:32:21.493Z,41.17
2018-08-04T16:35:46.039Z,40.85
2018-08-04T16:39:11.126Z,40.12
2018-08-04T16:42:35.962Z,40.03
2018-08-04T16:46:00.423Z,39.51
2018-08-04T16:49:25.378Z,38.70
2018-08-04T16:52:50.385Z,38.02
2018-08-04T16:56:15.571Z,37.42
2018-08-04T16:59:40.428Z,37.28
2018-08-04T17:03:05.275Z,36.92
2018-08-04T17:06:32.155Z,36.44
2018-08-04T17:09:56.584Z,36.09
2018-08-04T17:13:21.006Z,35.89
2018-08-04T17:16:45.505Z,36.17
2018-08-04T17:20:10.256Z,35.63
2018-08-04T17:23:34.667Z,35.13
2018-08-04T17:26:59.082Z,35.39
2018-08-04T17:30:23.513Z,35.21
2018-08-04T17:33:47.936Z,35.10
2018-08-04T17:37:12.398Z,35.03
2018-08-04T17:40:36.906Z,34.26
2018-08-04T17:44:01.332Z,34.36
2018-08-04T17:47:25.891Z,34.25
2018-08-04T17:50:50.298Z,34.30
2018-08-04T17:54:14.749Z,33.99
2018-08-04T17:57:39.309Z,34.11
2018-08-04T18:01:04.037Z,34.38
2018-08-04T18:04:28.589Z,34.14
2018-08-04T18:07:53.247Z,33.98
2018-08-04T18:11:17.832Z,33.41
2018-08-04T18:14:42.466Z,33.53
2018-08-04T18:18:07.342Z,33.28
2018-08-04T18:21:32.167Z,32.95
2018-08-04T18:24:56.691Z,32.86
2018-08-04T18:28:21.612Z,32.76
2018-08-04T18:31:46.179Z,32.85
2018-08-04T18:35:10.829Z,32.45
2018-08-04T18:38:35.396Z,32.38
2018-08-04T18:41:59.966Z,32.30
2018-08-04T18:45:24.366Z,31.82
2018-08-04T18:48:49.150Z,31.70
2018-08-04T18:52:13.584Z,31.56
2018-08-04T18:55:38.275Z,31.43
2018-08-04T18:59:02.735Z,31.29
2018-08-04T19:02:27.357Z,31.13
2018-08-04T19:05:51.796Z,30.92
2018-08-04T19:09:16.359Z,30.93
2018-08-04T19:12:43.123Z,30.50
2018-08-04T19:16:08.051Z,30.48
2018-08-04T19:19:32.917Z,30.52
2018-08-04T19:22:57.554Z,30.41
2018-08-04T19:26:21.971Z,30.39
2018-08-04T19:29:46.412Z,30.16
2018-08-04T19:33:10.835Z,30.16
2018-08-04T19:36:35.469Z,30.22
2018-08-04T19:39:59.921Z,30.02
2018-08-04T19:43:24.425Z,29.85
2018-08-04T19:46:49.054Z,29.82
2018-08-04T19:50:13.483Z,29.66
2018-08-04T19:53:37.903Z,29.77
2018-08-04T19:57:02.384Z,29.70
2018-08-04T20:00:26.782Z,29.45
2018-08-04T20:03:51.285Z,29.18
2018-08-04T20:07:15.713Z,29.22
2018-08-04T20:10:40.292Z,28.71
2018-08-04T20:14:04.738Z,28.56
2018-08-04T20:17:29.154Z,28.70
2018-08-04T20:20:56.799Z,28.58
2018-08-04T20:24:21.253Z,28.60
2018-08-04T20:27:46.521Z,28.43
2018-08-04T20:31:10.953Z,28.20
2018-08-04T20:34:35.471Z,27.93
2018-08-04T20:37:59.896Z,28.04
2018-08-04T20:41:24.351Z,28.21
2018-08-04T20:44:48.733Z,28.17
2018-08-04T20:48:13.192Z,28.02
2018-08-04T20:51:37.620Z,27.94
2018-08-04T20:55:02.100Z,27.51
2018-08-04T20:58:26.650Z,27.61
2018-08-04T21:02:05.759Z,27.19
2018-08-04T21:05:30.228Z,27.24
2018-08-04T21:08:54.736Z,27.28
2018-08-04T21:12:19.190Z,27.29
2018-08-04T21:15:43.599Z,27.50
2018-08-04T21:19:08.058Z,27.35
2018-08-04T21:22:33.115Z,27.27
2018-08-04T21:25:57.532Z,27.21
2018-08-04T21:29:22.546Z,27.24
2018-08-04T21:32:46.983Z,27.12
2018-08-04T21:36:11.403Z,27.09
2018-08-04T21:39:35.822Z,26.97
2018-08-04T21:43:00.256Z,26.92
2018-08-04T21:46:24.668Z,26.96
2018-08-04T21:49:49.165Z,26.99
2018-08-04T21:53:13.582Z,26.83
2018-08-04T21:56:38.000Z,26.77
2018-08-04T22:00:02.409Z,26.66
2018-08-04T22:03:26.852Z,26.45
2018-08-04T22:08:07.708Z,26.41
2018-08-04T22:11:32.112Z,26.48
2018-08-04T22:14:56.531Z,26.23
2018-08-04T22:18:21.060Z,26.23
2018-08-04T22:21:45.545Z,26.07
2018-08-04T22:25:12.607Z,26.02
2018-08-04T22:28:37.231Z,25.90
2018-08-04T22:32:01.965Z,25.84
2018-08-04T22:35:26.849Z,25.97
2018-08-04T22:38:51.341Z,25.78
2018-08-04T22:42:16.100Z,25.70
2018-08-04T22:46:18.001Z,25.67
2018-08-04T22:49:42.462Z,25.60
2018-08-04T22:53:07.471Z,25.55
2018-08-04T22:56:31.897Z,25.64
2018-08-04T22:59:57.076Z,25.57
2018-08-04T23:03:21.759Z,25.53
2018-08-04T23:06:46.229Z,25.41
2018-08-04T23:10:10.850Z,25.34
2018-08-04T23:13:35.300Z,25.34
2018-08-04T23:16:59.853Z,25.26
2018-08-04T23:20:24.310Z,25.27
2018-08-04T23:23:48.755Z,25.07
2018-08-04T23:27:13.355Z,25.09
2018-08-04T23:30:37.779Z,25.10
2018-08-04T23:34:02.211Z,24.87
2018-08-04T23:37:26.641Z,24.89
2018-08-04T23:40:51.104Z,24.83
2018-08-04T23:44:15.567Z,24.76
2018-08-04T23:47:39.960Z,24.63
2018-08-04T23:51:04.386Z,24.66
2018-08-04T23:54:28.832Z,24.47
2018-08-04T23:57:53.255Z,24.58
